createdAt,value
2018-06-07T00:00:21.907Z,25.39
2018-06-07T00:00:54.002Z,25.33
2018-06-07T00:01:26.096Z,25.34
2018-06-07T00:01:58.159Z,25.42
2018-06-07T00:02:30.245Z,25.38
2018-06-07T00:03:02.319Z,25.33
2018-06-07T00:03:34.425Z,25.37
2018-06-07T00:05:25.926Z,25.34
2018-06-07T00:05:58.008Z,25.33
2018-06-07T00:07:49.660Z,25.26
2018-06-07T00:08:21.763Z,25.3
2018-06-07T00:08:53.847Z,25.34
2018-06-07T00:09:25.943Z,25.3
2018-06-07T00:09:57.994Z,25.29
2018-06-07T00:11:49.681Z,25.22
2018-06-07T00:12:21.765Z,25.26
2018-06-07T00:12:53.859Z,25.3
2018-06-07T00:13:25.951Z,25.34
2018-06-07T00:15:17.680Z,25.24
2018-06-07T00:18:28.508Z,25.24
2018-06-07T00:19:00.581Z,25.19
2018-06-07T00:19:32.673Z,25.3
2018-06-07T00:20:04.773Z,25.17
2018-06-07T00:20:36.891Z,25.23
2018-06-07T00:21:08.968Z,25.23
2018-06-07T00:21:41.065Z,25.22
2018-06-07T00:22:13.172Z,25.2
2018-06-07T00:22:45.263Z,25.2
2018-06-07T00:23:17.349Z,25.2
2018-06-07T00:23:49.436Z,25.23
2018-06-07T00:24:21.522Z,25.19
2018-06-07T00:24:53.615Z,25.17
2018-06-07T00:25:25.717Z,25.15
2018-06-07T00:25:57.816Z,25.09
2018-06-07T00:26:29.886Z,25.19
2018-06-07T00:27:01.983Z,25.17
2018-06-07T00:27:34.074Z,25.15
2018-06-07T00:29:25.816Z,25.14
2018-06-07T00:29:57.891Z,25.17
2018-06-07T00:30:29.994Z,25.09
2018-06-07T00:32:21.509Z,25.04
2018-06-07T00:32:53.609Z,25.09
2018-06-07T00:36:04.765Z,25.02
2018-06-07T00:36:36.822Z,25.08
2018-06-07T00:37:08.927Z,25.09
2018-06-07T00:37:41.030Z,25
2018-06-07T00:38:13.131Z,25.07
2018-06-07T00:38:45.238Z,25.02
2018-06-07T00:39:17.386Z,25.05
2018-06-07T00:39:49.489Z,25.05
2018-06-07T00:40:21.543Z,25.04
2018-06-07T00:42:13.184Z,25.04
2018-06-07T00:44:04.685Z,25.01
2018-06-07T00:44:36.774Z,25.07
2018-06-07T00:46:28.193Z,24.9
2018-06-07T00:47:00.282Z,25.02
2018-06-07T00:47:32.378Z,25.02
2018-06-07T00:48:04.473Z,25.04
2018-06-07T00:48:36.552Z,25.01
2018-06-07T00:49:08.635Z,24.97
2018-06-07T00:49:40.730Z,24.97
2018-06-07T00:50:12.828Z,24.96
2018-06-07T00:50:44.931Z,24.93
2018-06-07T00:51:17.010Z,25.02
2018-06-07T00:51:49.109Z,25.05
2018-06-07T00:52:21.210Z,25
2018-06-07T00:54:12.693Z,24.97
2018-06-07T00:54:44.789Z,24.89
2018-06-07T00:55:16.871Z,24.9
2018-06-07T00:55:48.952Z,24.93
2018-06-07T00:56:21.036Z,24.92
2018-06-07T00:56:53.105Z,24.94
2018-06-07T00:57:25.215Z,24.92
2018-06-07T00:57:57.324Z,24.94
2018-06-07T00:58:29.410Z,24.94
2018-06-07T00:59:01.499Z,24.89
2018-06-07T00:59:33.576Z,24.92
2018-06-07T01:02:44.529Z,24.83
2018-06-07T01:03:16.596Z,24.87
2018-06-07T01:03:48.678Z,24.87
2018-06-07T01:04:20.764Z,24.82
2018-06-07T01:04:52.865Z,24.87
2018-06-07T01:05:24.948Z,24.82
2018-06-07T01:05:57.029Z,24.85
2018-06-07T01:09:07.959Z,24.78
2018-06-07T01:10:59.708Z,24.8
2018-06-07T01:12:51.038Z,24.74
2018-06-07T01:13:23.139Z,24.75
2018-06-07T01:13:55.233Z,24.78
2018-06-07T01:14:27.327Z,24.75
2018-06-07T01:14:59.427Z,24.7
2018-06-07T01:15:31.535Z,24.74
2018-06-07T01:16:03.621Z,24.74
2018-06-07T01:16:35.719Z,24.7
2018-06-07T01:17:07.839Z,24.71
2018-06-07T01:17:39.926Z,24.69
2018-06-07T01:18:12.034Z,24.8
2018-06-07T01:18:44.139Z,24.75
2018-06-07T01:20:35.456Z,24.69
2018-06-07T01:21:07.510Z,24.71
2018-06-07T01:21:39.614Z,24.74
2018-06-07T01:22:11.730Z,24.71
2018-06-07T01:24:03.468Z,24.61
2018-06-07T01:24:35.554Z,24.69
2018-06-07T01:25:07.644Z,24.64
2018-06-07T01:25:39.735Z,24.66
2018-06-07T01:27:31.240Z,24.63
2018-06-07T01:28:03.329Z,24.64
2018-06-07T01:28:35.431Z,24.59
2018-06-07T01:29:07.537Z,24.61
2018-06-07T01:29:39.613Z,24.63
2018-06-07T01:30:11.710Z,24.59
2018-06-07T01:30:43.808Z,24.59
2018-06-07T01:32:35.298Z,24.67
2018-06-07T01:33:07.399Z,24.64
2018-06-07T01:33:39.493Z,24.51
2018-06-07T01:34:11.566Z,24.61
2018-06-07T01:34:43.641Z,24.59
2018-06-07T01:35:15.753Z,24.51
2018-06-07T01:35:47.860Z,24.56
2018-06-07T01:36:19.957Z,24.59
2018-06-07T01:36:52.041Z,24.54
2018-06-07T01:37:24.145Z,24.56
2018-06-07T01:37:56.249Z,24.54
2018-06-07T01:38:28.349Z,24.49
2018-06-07T01:39:00.448Z,24.55
2018-06-07T01:40:51.794Z,24.46
2018-06-07T01:41:23.906Z,24.49
2018-06-07T01:41:55.996Z,24.44
2018-06-07T01:42:28.088Z,24.52
2018-06-07T01:43:00.193Z,24.44
2018-06-07T01:43:32.278Z,24.46
2018-06-07T01:44:04.386Z,24.49
2018-06-07T01:44:36.491Z,24.42
2018-06-07T01:45:08.578Z,24.42
2018-06-07T01:45:40.660Z,24.48
2018-06-07T01:46:12.758Z,24.44
2018-06-07T01:48:04.383Z,24.39
2018-06-07T01:48:36.457Z,24.49
2018-06-07T01:49:08.531Z,24.44
2018-06-07T01:50:59.899Z,24.45
2018-06-07T01:51:31.965Z,24.42
2018-06-07T01:52:04.064Z,24.44
2018-06-07T01:52:36.152Z,24.37
2018-06-07T01:53:08.240Z,24.44
2018-06-07T01:53:40.322Z,24.37
2018-06-07T01:54:12.426Z,24.42
2018-06-07T01:54:44.507Z,24.39
2018-06-07T01:56:35.984Z,24.33
2018-06-07T01:57:08.087Z,24.27
2018-06-07T01:57:40.184Z,24.33
2018-06-07T01:58:12.273Z,24.3
2018-06-07T01:58:44.341Z,24.33
2018-06-07T01:59:16.425Z,24.36
2018-06-07T01:59:48.541Z,24.39
2018-06-07T02:00:20.642Z,24.39
2018-06-07T02:00:52.730Z,24.44
2018-06-07T02:01:24.814Z,24.33
2018-06-07T02:01:56.930Z,24.32
2018-06-07T02:03:48.395Z,24.22
2018-06-07T02:04:20.514Z,24.3
2018-06-07T02:04:52.592Z,24.3
2018-06-07T02:05:24.690Z,24.24
2018-06-07T02:05:56.781Z,24.3
2018-06-07T02:06:28.883Z,24.29
2018-06-07T02:07:00.977Z,24.29
2018-06-07T02:07:33.054Z,24.21
2018-06-07T02:08:05.131Z,24.3
2018-06-07T02:08:37.213Z,24.26
2018-06-07T02:09:09.296Z,24.21
2018-06-07T02:11:00.790Z,24.22
2018-06-07T02:11:32.888Z,24.27
2018-06-07T02:12:04.966Z,24.21
2018-06-07T02:12:37.063Z,24.26
2018-06-07T02:13:09.157Z,24.22
2018-06-07T02:13:41.264Z,24.26
2018-06-07T02:15:32.825Z,24.21
2018-06-07T02:16:04.932Z,24.27
2018-06-07T02:16:37.031Z,24.29
2018-06-07T02:17:09.130Z,24.19
2018-06-07T02:17:41.207Z,24.29
2018-06-07T02:18:13.287Z,24.17
2018-06-07T02:21:24.581Z,24.22
2018-06-07T02:21:56.689Z,24.12
2018-06-07T02:22:28.797Z,24.14
2018-06-07T02:23:00.887Z,24.12
2018-06-07T02:23:32.972Z,24.07
2018-06-07T02:24:05.076Z,24.12
2018-06-07T02:24:37.174Z,24.19
2018-06-07T02:25:09.253Z,24.21
2018-06-07T02:25:41.333Z,24.19
2018-06-07T02:26:13.419Z,24.12
2018-06-07T02:26:45.507Z,24.18
2018-06-07T02:27:17.608Z,24.14
2018-06-07T02:27:49.705Z,24.12
2018-06-07T02:28:21.808Z,24.12
2018-06-07T02:28:53.885Z,24.17
2018-06-07T02:29:25.981Z,24.15
2018-06-07T02:31:17.760Z,24.08
2018-06-07T02:31:49.868Z,24.09
2018-06-07T02:32:21.957Z,24.08
2018-06-07T02:32:54.045Z,24.08
2018-06-07T02:33:26.148Z,24.15
2018-06-07T02:33:58.219Z,24.04
2018-06-07T02:34:30.342Z,24.09
2018-06-07T02:35:02.420Z,24.04
2018-06-07T02:35:34.541Z,24.07
2018-06-07T02:36:06.647Z,24.04
2018-06-07T02:37:58.301Z,24.08
2018-06-07T02:39:49.586Z,24
2018-06-07T02:41:41.255Z,24
2018-06-07T02:42:13.351Z,24.03
2018-06-07T02:42:45.467Z,24.02
2018-06-07T02:43:17.561Z,24
2018-06-07T02:43:49.654Z,24.03
2018-06-07T02:44:21.746Z,24.03
2018-06-07T02:44:53.834Z,24.02
2018-06-07T02:46:45.273Z,23.92
2018-06-07T02:47:17.382Z,23.99
2018-06-07T02:47:49.481Z,23.92
2018-06-07T02:48:21.552Z,23.92
2018-06-07T02:48:53.614Z,23.92
2018-06-07T02:49:25.743Z,23.92
2018-06-07T02:49:57.840Z,23.92
2018-06-07T02:50:29.923Z,23.92
2018-06-07T02:51:02.036Z,23.94
2018-06-07T02:51:34.161Z,23.94
2018-06-07T02:53:25.518Z,23.99
2018-06-07T02:53:57.618Z,23.99
2018-06-07T02:54:29.701Z,23.96
2018-06-07T02:55:01.791Z,23.99
2018-06-07T02:56:53.352Z,23.92
2018-06-07T02:57:25.455Z,23.97
2018-06-07T02:59:17.018Z,23.9
2018-06-07T02:59:49.074Z,23.9
2018-06-07T03:00:21.175Z,23.92
2018-06-07T03:00:53.269Z,23.9
2018-06-07T03:01:25.381Z,23.87
2018-06-07T03:01:57.463Z,23.89
2018-06-07T03:02:29.545Z,23.92
2018-06-07T03:03:01.622Z,23.84
2018-06-07T03:03:33.712Z,23.89
2018-06-07T03:04:05.827Z,23.89
2018-06-07T03:05:57.284Z,23.74
2018-06-07T03:06:29.378Z,23.77
2018-06-07T03:07:01.481Z,23.79
2018-06-07T03:08:53.100Z,23.81
2018-06-07T03:09:25.192Z,23.82
2018-06-07T03:09:57.278Z,23.84
2018-06-07T03:10:29.370Z,23.75
2018-06-07T03:11:01.456Z,23.81
2018-06-07T03:11:33.547Z,23.85
2018-06-07T03:12:05.631Z,23.77
2018-06-07T03:12:37.720Z,23.84
2018-06-07T03:14:29.274Z,23.85
2018-06-07T03:15:01.375Z,23.82
2018-06-07T03:15:33.432Z,23.78
2018-06-07T03:17:24.848Z,23.82
2018-06-07T03:17:56.944Z,23.78
2018-06-07T03:18:29.040Z,23.75
2018-06-07T03:19:01.117Z,23.85
2018-06-07T03:19:33.219Z,23.79
2018-06-07T03:21:24.617Z,23.77
2018-06-07T03:21:56.714Z,23.77
2018-06-07T03:22:28.814Z,23.74
2018-06-07T03:23:00.897Z,23.78
2018-06-07T03:23:32.982Z,23.75
2018-06-07T03:24:05.032Z,23.77
2018-06-07T03:24:37.113Z,23.77
2018-06-07T03:26:28.789Z,23.77
2018-06-07T03:27:00.881Z,23.75
2018-06-07T03:27:32.989Z,23.66
2018-06-07T03:29:24.416Z,23.71
2018-06-07T03:29:56.498Z,23.72
2018-06-07T03:30:28.572Z,23.75
2018-06-07T03:31:00.664Z,23.67
2018-06-07T03:32:52.301Z,23.72
2018-06-07T03:33:24.397Z,23.7
2018-06-07T03:35:15.970Z,23.7
2018-06-07T03:37:07.361Z,23.62
2018-06-07T03:38:58.856Z,23.67
2018-06-07T03:39:30.951Z,23.7
2018-06-07T03:40:03.044Z,23.66
2018-06-07T03:40:35.149Z,23.64
2018-06-07T03:41:07.226Z,23.75
2018-06-07T03:41:39.323Z,23.72
2018-06-07T03:42:11.430Z,23.66
2018-06-07T03:42:43.515Z,23.7
2018-06-07T03:43:15.616Z,23.62
2018-06-07T03:43:47.702Z,23.63
2018-06-07T03:44:19.797Z,23.66
2018-06-07T03:47:31.130Z,23.67
2018-06-07T03:48:03.245Z,23.72
2018-06-07T03:49:54.880Z,23.64
2018-06-07T03:50:26.954Z,23.71
2018-06-07T03:50:59.051Z,23.62
2018-06-07T03:51:31.133Z,23.66
2018-06-07T03:52:03.214Z,23.63
2018-06-07T03:52:35.348Z,23.7
2018-06-07T03:53:07.389Z,23.67
2018-06-07T03:53:39.505Z,23.64
2018-06-07T03:54:11.608Z,23.6
2018-06-07T03:54:43.710Z,23.59
2018-06-07T03:55:15.832Z,23.66
2018-06-07T03:57:07.478Z,23.63
2018-06-07T03:57:39.580Z,23.64
2018-06-07T03:58:11.682Z,23.66
2018-06-07T03:58:43.782Z,23.64
2018-06-07T03:59:15.879Z,23.63
2018-06-07T03:59:47.985Z,23.7
2018-06-07T04:00:20.082Z,23.56
2018-06-07T04:00:52.162Z,23.66
2018-06-07T04:01:24.237Z,23.6
2018-06-07T04:01:56.303Z,23.57
2018-06-07T04:02:28.431Z,23.59
2018-06-07T04:04:20.140Z,23.6
2018-06-07T04:04:52.238Z,23.6
2018-06-07T04:05:24.313Z,23.59
2018-06-07T04:07:15.641Z,23.62
2018-06-07T04:07:47.761Z,23.6
2018-06-07T04:08:19.850Z,23.56
2018-06-07T04:10:11.319Z,23.55
2018-06-07T04:10:43.404Z,23.63
2018-06-07T04:11:15.504Z,23.56
2018-06-07T04:11:47.581Z,23.62
2018-06-07T04:12:19.663Z,23.62
2018-06-07T04:12:51.760Z,23.64
2018-06-07T04:13:23.856Z,23.56
2018-06-07T04:13:55.957Z,23.57
2018-06-07T04:14:28.053Z,23.59
2018-06-07T04:15:00.169Z,23.62
2018-06-07T04:15:32.263Z,23.59
2018-06-07T04:16:04.382Z,23.62
2018-06-07T04:16:36.493Z,23.6
2018-06-07T04:18:27.971Z,23.6
2018-06-07T04:19:00.081Z,23.57
2018-06-07T04:19:32.166Z,23.6
2018-06-07T04:20:04.246Z,23.59
2018-06-07T04:20:36.339Z,23.62
2018-06-07T04:21:08.417Z,23.63
2018-06-07T04:21:40.524Z,23.62
2018-06-07T04:22:12.625Z,23.57
2018-06-07T04:22:44.724Z,23.57
2018-06-07T04:23:16.831Z,23.56
2018-06-07T04:23:48.889Z,23.64
2018-06-07T04:24:20.953Z,23.62
2018-06-07T04:24:53.033Z,23.6
2018-06-07T04:26:44.645Z,23.6
2018-06-07T04:27:16.714Z,23.66
2018-06-07T04:27:48.806Z,23.57
2018-06-07T04:29:40.569Z,23.6
2018-06-07T04:30:12.662Z,23.64
2018-06-07T04:30:44.748Z,23.62
2018-06-07T04:31:16.858Z,23.64
2018-06-07T04:31:48.947Z,23.66
2018-06-07T04:32:21.027Z,23.64
2018-06-07T04:32:53.103Z,23.6
2018-06-07T04:33:25.205Z,23.63
2018-06-07T04:33:57.308Z,23.66
2018-06-07T04:34:29.418Z,23.63
2018-06-07T04:35:01.489Z,23.67
2018-06-07T04:35:33.565Z,23.66
2018-06-07T04:37:24.890Z,23.7
2018-06-07T04:37:57.026Z,23.66
2018-06-07T04:38:29.100Z,23.7
2018-06-07T04:39:01.192Z,23.7
2018-06-07T04:40:52.582Z,23.66
2018-06-07T04:42:44.160Z,23.7
2018-06-07T04:44:35.841Z,23.7
2018-06-07T04:45:07.948Z,23.7
2018-06-07T04:45:40.048Z,23.71
2018-06-07T04:46:12.130Z,23.72
2018-06-07T04:46:44.231Z,23.71
2018-06-07T04:47:16.316Z,23.7
2018-06-07T04:47:48.397Z,23.75
2018-06-07T04:48:20.489Z,23.75
2018-06-07T04:48:52.588Z,23.75
2018-06-07T04:49:24.669Z,23.79
2018-06-07T04:49:56.737Z,23.79
2018-06-07T04:50:28.832Z,23.75
2018-06-07T04:52:20.160Z,23.77
2018-06-07T04:52:52.234Z,23.84
2018-06-07T04:53:24.336Z,23.82
2018-06-07T04:53:56.401Z,23.82
2018-06-07T04:54:28.501Z,23.89
2018-06-07T04:55:00.593Z,23.84
2018-06-07T04:55:32.681Z,23.82
2018-06-07T04:56:04.763Z,23.82
2018-06-07T04:56:36.844Z,23.84
2018-06-07T04:58:28.413Z,23.93
2018-06-07T04:59:00.521Z,23.96
2018-06-07T04:59:32.609Z,23.85
2018-06-07T05:00:04.712Z,23.9
2018-06-07T05:00:36.813Z,23.94
2018-06-07T05:01:08.887Z,23.84
2018-06-07T05:01:40.980Z,23.89
2018-06-07T05:03:32.349Z,23.97
2018-06-07T05:05:23.924Z,23.93
2018-06-07T05:05:56.000Z,23.96
2018-06-07T05:06:28.108Z,24.04
2018-06-07T05:07:00.170Z,24.02
2018-06-07T05:07:32.253Z,24.03
2018-06-07T05:08:04.348Z,23.99
2018-06-07T05:08:36.439Z,24.02
2018-06-07T05:09:08.532Z,24.03
2018-06-07T05:11:00.094Z,24.08
2018-06-07T05:12:51.844Z,24.09
2018-06-07T05:13:23.940Z,24.12
2018-06-07T05:13:56.024Z,24.12
2018-06-07T05:14:28.080Z,24.11
2018-06-07T05:15:00.175Z,24.11
2018-06-07T05:15:32.281Z,24.18
2018-06-07T05:16:04.367Z,24.22
2018-06-07T05:16:36.474Z,24.15
2018-06-07T05:17:08.584Z,24.24
2018-06-07T05:17:40.720Z,24.21
2018-06-07T05:18:13.042Z,24.12
2018-06-07T05:20:04.420Z,24.22
2018-06-07T05:20:36.524Z,24.29
2018-06-07T05:21:08.620Z,24.21
2018-06-07T05:21:40.697Z,24.26
2018-06-07T05:22:12.795Z,24.26
2018-06-07T05:22:44.877Z,24.19
2018-06-07T05:23:16.966Z,24.27
2018-06-07T05:25:08.685Z,24.29
2018-06-07T05:25:40.790Z,24.37
2018-06-07T05:26:12.884Z,24.36
2018-06-07T05:26:44.991Z,24.3
2018-06-07T05:27:17.086Z,24.42
2018-06-07T05:27:49.208Z,24.37
2018-06-07T05:28:21.322Z,24.34
2018-06-07T05:28:53.417Z,24.42
2018-06-07T05:29:25.527Z,24.39
2018-06-07T05:29:57.619Z,24.48
2018-06-07T05:30:29.997Z,24.45
2018-06-07T05:31:02.106Z,24.48
2018-06-07T05:32:53.597Z,24.55
2018-06-07T05:33:25.677Z,24.54
2018-06-07T05:33:57.754Z,24.51
2018-06-07T05:34:29.854Z,24.52
2018-06-07T05:35:01.979Z,24.58
2018-06-07T05:35:34.084Z,24.59
2018-06-07T05:36:06.207Z,24.59
2018-06-07T05:37:57.526Z,24.74
2018-06-07T05:38:29.600Z,24.75
2018-06-07T05:39:01.700Z,24.69
2018-06-07T05:39:33.806Z,24.78
2018-06-07T05:40:05.899Z,24.74
2018-06-07T05:41:57.195Z,24.74
2018-06-07T05:42:29.305Z,24.8
2018-06-07T05:43:01.390Z,24.8
2018-06-07T05:44:52.945Z,24.74
2018-06-07T05:45:25.031Z,24.89
2018-06-07T05:45:57.106Z,24.92
2018-06-07T05:46:29.181Z,24.94
2018-06-07T05:47:01.422Z,24.97
2018-06-07T05:47:33.510Z,24.94
2018-06-07T05:48:05.606Z,24.9
2018-06-07T05:48:37.722Z,25
2018-06-07T05:49:09.813Z,25.04
2018-06-07T05:49:41.911Z,24.93
2018-06-07T05:51:33.617Z,25
2018-06-07T05:52:05.715Z,25.04
2018-06-07T05:52:37.803Z,25.09
2018-06-07T05:53:09.848Z,25.04
2018-06-07T05:53:41.940Z,25.08
2018-06-07T05:54:14.036Z,25.05
2018-06-07T05:56:05.541Z,25.08
2018-06-07T05:56:37.626Z,25.14
2018-06-07T05:57:09.701Z,25.11
2018-06-07T05:57:41.801Z,25.17
2018-06-07T05:58:13.903Z,25.26
2018-06-07T06:00:05.372Z,25.27
2018-06-07T06:00:37.475Z,25.24
2018-06-07T06:02:29.100Z,25.34
2018-06-07T06:03:01.212Z,25.33
2018-06-07T06:03:33.231Z,25.37
2018-06-07T06:04:05.332Z,25.37
2018-06-07T06:04:37.417Z,25.42
2018-06-07T06:05:09.517Z,25.44
2018-06-07T06:05:41.602Z,25.38
2018-06-07T06:06:13.695Z,25.41
2018-06-07T06:06:45.767Z,25.45
2018-06-07T06:07:17.888Z,25.41
2018-06-07T06:07:49.898Z,25.59
2018-06-07T06:08:21.970Z,25.51
2018-06-07T06:08:54.066Z,25.54
2018-06-07T06:09:26.201Z,25.52
2018-06-07T06:09:58.238Z,25.62
2018-06-07T06:10:30.330Z,25.66
2018-06-07T06:11:02.407Z,25.6
2018-06-07T06:11:34.506Z,25.59
2018-06-07T06:12:07.656Z,25.67
2018-06-07T06:12:39.801Z,25.67
2018-06-07T06:13:11.889Z,25.67
2018-06-07T06:13:43.980Z,25.66
2018-06-07T06:14:16.057Z,25.78
2018-06-07T06:14:48.148Z,25.75
2018-06-07T06:16:39.452Z,25.7
2018-06-07T06:17:11.560Z,25.81
2018-06-07T06:17:43.637Z,25.79
2018-06-07T06:18:15.737Z,25.84
2018-06-07T06:18:47.823Z,25.86
2018-06-07T06:19:19.912Z,25.84
2018-06-07T06:19:51.957Z,25.88
2018-06-07T06:20:24.018Z,25.91
2018-06-07T06:20:56.112Z,25.93
2018-06-07T06:21:28.323Z,25.94
2018-06-07T06:22:00.291Z,25.88
2018-06-07T06:22:32.410Z,25.96
2018-06-07T06:24:23.896Z,25.97
2018-06-07T06:24:55.952Z,26.11
2018-06-07T06:25:28.054Z,26.07
2018-06-07T06:26:00.139Z,26.12
2018-06-07T06:26:32.286Z,26.11
2018-06-07T06:27:04.344Z,26.11
2018-06-07T06:27:36.454Z,26.11
2018-06-07T06:28:08.518Z,26.12
2018-06-07T06:28:40.617Z,26.24
2018-06-07T06:29:12.722Z,26.2
2018-06-07T06:29:44.802Z,26.19
2018-06-07T06:30:16.885Z,26.3
2018-06-07T06:30:49.074Z,26.26
2018-06-07T06:31:21.157Z,26.3
2018-06-07T06:31:53.475Z,26.23
2018-06-07T06:32:25.569Z,26.27
2018-06-07T06:34:17.062Z,26.38
2018-06-07T06:34:49.163Z,26.35
2018-06-07T06:35:21.235Z,26.37
2018-06-07T06:35:53.326Z,26.41
2018-06-07T06:36:25.358Z,26.38
2018-06-07T06:36:57.422Z,26.37
2018-06-07T06:37:29.536Z,26.5
2018-06-07T06:38:01.600Z,26.56
2018-06-07T06:38:33.698Z,26.45
2018-06-07T06:39:05.825Z,26.47
2018-06-07T06:39:37.935Z,26.49
2018-06-07T06:40:10.028Z,26.56
2018-06-07T06:42:01.733Z,26.6
2018-06-07T06:42:33.813Z,26.56
2018-06-07T06:43:05.924Z,26.59
2018-06-07T06:44:33.603Z,26.67
2018-06-07T06:45:05.690Z,26.79
2018-06-07T06:45:37.788Z,26.76
2018-06-07T06:46:09.852Z,26.81
2018-06-07T06:48:01.540Z,26.84
2018-06-07T06:48:36.909Z,26.9
2018-06-07T06:49:09.590Z,26.81
2018-06-07T06:52:20.744Z,26.99
2018-06-07T06:52:52.850Z,26.97
2018-06-07T06:53:24.950Z,27.05
2018-06-07T06:53:57.022Z,26.99
2018-06-07T06:54:29.098Z,27.04
2018-06-07T06:55:01.208Z,27.11
2018-06-07T06:55:33.269Z,27.08
2018-06-07T06:56:05.324Z,27.15
2018-06-07T06:56:37.408Z,27.09
2018-06-07T06:58:29.066Z,27.24
2018-06-07T06:59:01.153Z,27.23
2018-06-07T06:59:33.225Z,27.27
2018-06-07T07:00:05.315Z,27.33
2018-06-07T07:00:37.396Z,27.3
2018-06-07T07:01:09.440Z,27.26
2018-06-07T07:01:41.534Z,27.27
2018-06-07T07:02:13.647Z,27.33
2018-06-07T07:02:45.728Z,27.43
2018-06-07T07:04:37.126Z,27.41
2018-06-07T07:05:09.176Z,27.45
2018-06-07T07:05:41.243Z,27.53
2018-06-07T07:06:13.331Z,27.51
2018-06-07T07:06:45.441Z,27.57
2018-06-07T07:07:17.529Z,27.49
2018-06-07T07:07:49.609Z,27.48
2018-06-07T07:08:21.701Z,27.53
2018-06-07T07:08:53.806Z,27.64
2018-06-07T07:09:25.884Z,27.64
2018-06-07T07:09:57.965Z,27.61
2018-06-07T07:11:49.497Z,27.68
2018-06-07T07:13:40.831Z,27.66
2018-06-07T07:14:12.932Z,27.81
2018-06-07T07:14:45.019Z,27.76
2018-06-07T07:15:17.112Z,27.66
2018-06-07T07:15:49.206Z,27.8
2018-06-07T07:16:21.309Z,27.83
2018-06-07T07:16:53.402Z,27.83
2018-06-07T07:17:25.511Z,27.81
2018-06-07T07:17:57.588Z,27.87
2018-06-07T07:18:29.657Z,27.91
2018-06-07T07:19:01.738Z,27.94
2018-06-07T07:19:33.841Z,27.93
2018-06-07T07:20:05.912Z,27.94
2018-06-07T07:20:37.972Z,27.98
2018-06-07T07:21:10.011Z,28.05
2018-06-07T07:21:42.101Z,27.99
2018-06-07T07:22:14.209Z,28.01
2018-06-07T07:22:46.289Z,28.02
2018-06-07T07:23:18.433Z,28.01
2018-06-07T07:23:50.481Z,28.01
2018-06-07T07:24:22.563Z,28.05
2018-06-07T07:24:54.712Z,28.03
2018-06-07T07:25:26.832Z,28.14
2018-06-07T07:25:58.914Z,28.14
2018-06-07T07:26:31.023Z,28.11
2018-06-07T07:27:03.124Z,28.16
2018-06-07T07:27:35.217Z,28.2
2018-06-07T07:28:07.299Z,28.27
2018-06-07T07:28:39.389Z,28.23
2018-06-07T07:30:31.169Z,28.27
2018-06-07T07:31:03.241Z,28.26
2018-06-07T07:32:54.734Z,28.43
2018-06-07T07:33:26.833Z,28.42
2018-06-07T07:33:59.539Z,28.42
2018-06-07T07:34:31.660Z,28.43
2018-06-07T07:35:03.733Z,28.43
2018-06-07T07:35:35.842Z,28.51
2018-06-07T07:36:07.935Z,28.49
2018-06-07T07:36:40.039Z,28.43
2018-06-07T07:39:51.341Z,28.6
2018-06-07T07:40:23.434Z,28.61
2018-06-07T07:40:55.619Z,28.72
2018-06-07T07:42:47.093Z,28.73
2018-06-07T07:43:19.188Z,28.75
2018-06-07T07:43:51.266Z,28.64
2018-06-07T07:44:23.344Z,28.78
2018-06-07T07:44:55.446Z,28.8
2018-06-07T07:45:27.543Z,28.82
2018-06-07T07:45:59.631Z,28.86
2018-06-07T07:46:31.731Z,28.9
2018-06-07T07:47:03.834Z,28.88
2018-06-07T07:47:35.931Z,28.82
2018-06-07T07:48:07.999Z,28.86
2018-06-07T07:48:40.110Z,28.83
2018-06-07T07:50:31.766Z,28.91
2018-06-07T07:51:03.877Z,28.94
2018-06-07T07:51:35.972Z,28.94
2018-06-07T07:52:08.067Z,28.98
2018-06-07T07:52:40.144Z,28.91
2018-06-07T07:54:31.777Z,29.05
2018-06-07T07:55:03.923Z,29.02
2018-06-07T07:55:35.992Z,29.08
2018-06-07T07:58:46.773Z,29.14
2018-06-07T07:59:18.861Z,29.21
2018-06-07T07:59:50.955Z,29.23
2018-06-07T08:00:23.053Z,29.14
2018-06-07T08:00:55.141Z,29.15
2018-06-07T08:01:27.236Z,29.26
2018-06-07T08:01:59.328Z,29.28
2018-06-07T08:02:31.469Z,29.24
2018-06-07T08:03:03.602Z,29.33
2018-06-07T08:04:55.110Z,29.42
2018-06-07T08:05:27.262Z,29.39
2018-06-07T08:05:59.475Z,29.38
2018-06-07T08:06:31.678Z,29.39
2018-06-07T08:07:03.896Z,29.39
2018-06-07T08:07:35.967Z,29.4
2018-06-07T08:08:08.020Z,29.47
2018-06-07T08:08:40.119Z,29.52
2018-06-07T08:09:12.191Z,29.45
2018-06-07T08:09:44.315Z,29.54
2018-06-07T08:10:16.419Z,29.48
2018-06-07T08:10:48.492Z,29.42
2018-06-07T08:11:20.565Z,29.47
2018-06-07T08:11:52.638Z,29.48
2018-06-07T08:12:24.698Z,29.61
2018-06-07T08:12:56.548Z,29.54
2018-06-07T08:13:28.715Z,29.57
2018-06-07T08:14:00.811Z,29.61
2018-06-07T08:14:33.041Z,29.63
2018-06-07T08:15:05.311Z,29.63
2018-06-07T08:15:37.360Z,29.67
2018-06-07T08:16:09.429Z,29.61
2018-06-07T08:16:41.550Z,29.67
2018-06-07T08:17:13.632Z,29.66
2018-06-07T08:17:45.728Z,29.72
2018-06-07T08:18:17.743Z,29.7
2018-06-07T08:18:49.846Z,29.73
2018-06-07T08:19:21.940Z,29.76
2018-06-07T08:19:54.038Z,29.76
2018-06-07T08:21:46.212Z,29.77
2018-06-07T08:22:18.347Z,29.87
2018-06-07T08:22:50.480Z,29.79
2018-06-07T08:23:24.548Z,29.87
2018-06-07T08:23:56.617Z,29.87
2018-06-07T08:24:28.811Z,29.88
2018-06-07T08:25:00.906Z,29.89
2018-06-07T08:25:32.979Z,29.92
2018-06-07T08:26:05.076Z,29.95
2018-06-07T08:26:37.151Z,30.02
2018-06-07T08:27:09.240Z,30.04
2018-06-07T08:27:41.343Z,29.97
2018-06-07T08:28:13.444Z,30.02
2018-06-07T08:28:45.533Z,30.04
2018-06-07T08:29:17.574Z,30.03
2018-06-07T08:29:49.689Z,30.04
2018-06-07T08:31:41.047Z,30.1
2018-06-07T08:32:13.163Z,30.1
2018-06-07T08:32:45.249Z,30.14
2018-06-07T08:33:17.329Z,30.18
2018-06-07T08:35:09.128Z,30.14
2018-06-07T08:35:41.199Z,30.19
2018-06-07T08:36:13.253Z,30.16
2018-06-07T08:36:45.318Z,30.18
2018-06-07T08:37:17.450Z,30.18
2018-06-07T08:37:49.564Z,30.18
2018-06-07T08:38:21.643Z,30.35
2018-06-07T08:38:53.728Z,30.37
2018-06-07T08:39:25.855Z,30.37
2018-06-07T08:39:57.910Z,30.29
2018-06-07T08:40:30.007Z,30.37
2018-06-07T08:41:02.135Z,30.34
2018-06-07T08:41:34.312Z,30.44
2018-06-07T08:42:06.461Z,30.37
2018-06-07T08:42:38.551Z,30.44
2018-06-07T08:43:10.648Z,30.47
2018-06-07T08:43:42.708Z,30.42
2018-06-07T08:44:14.978Z,30.37
2018-06-07T08:44:47.204Z,30.51
2018-06-07T08:46:38.622Z,30.47
2018-06-07T08:48:30.337Z,30.63
2018-06-07T08:49:02.398Z,30.66
2018-06-07T08:49:34.484Z,30.59
2018-06-07T08:50:06.572Z,30.59
2018-06-07T08:50:38.804Z,30.62
2018-06-07T08:51:10.941Z,30.64
2018-06-07T08:51:42.997Z,30.79
2018-06-07T08:52:15.085Z,30.67
2018-06-07T08:52:47.342Z,30.71
2018-06-07T08:53:19.423Z,30.7
2018-06-07T08:53:51.471Z,30.75
2018-06-07T08:54:23.543Z,30.77
2018-06-07T08:54:55.635Z,30.69
2018-06-07T08:55:27.741Z,30.75
2018-06-07T08:55:59.812Z,30.78
2018-06-07T08:56:31.920Z,30.82
2018-06-07T08:57:04.006Z,30.79
2018-06-07T08:57:36.112Z,30.84
2018-06-07T08:58:08.191Z,30.93
2018-06-07T08:58:40.250Z,30.93
2018-06-07T08:59:12.321Z,30.86
2018-06-07T08:59:44.446Z,30.88
2018-06-07T09:00:16.885Z,30.88
2018-06-07T09:02:10.904Z,30.88
2018-06-07T09:02:42.957Z,30.89
2018-06-07T09:03:15.079Z,30.89
2018-06-07T09:05:06.606Z,31.01
2018-06-07T09:05:38.683Z,31.01
2018-06-07T09:06:10.797Z,30.96
2018-06-07T09:08:02.238Z,31.04
2018-06-07T09:08:34.379Z,31.01
2018-06-07T09:09:06.523Z,31.1
2018-06-07T09:09:38.573Z,31.12
2018-06-07T09:10:10.702Z,31.13
2018-06-07T09:10:44.345Z,31.13
2018-06-07T09:11:17.954Z,31.18
2018-06-07T09:13:09.662Z,31.21
2018-06-07T09:13:41.777Z,31.21
2018-06-07T09:14:13.882Z,31.28
2018-06-07T09:14:45.989Z,31.25
2018-06-07T09:15:18.043Z,31.26
2018-06-07T09:15:50.097Z,31.25
2018-06-07T09:17:41.716Z,31.34
2018-06-07T09:18:13.532Z,31.37
2018-06-07T09:18:45.620Z,31.33
2018-06-07T09:19:17.705Z,31.37
2018-06-07T09:19:49.983Z,31.34
2018-06-07T09:20:23.320Z,31.45
2018-06-07T09:20:55.408Z,31.45
2018-06-07T09:21:27.493Z,31.49
2018-06-07T09:21:59.575Z,31.5
2018-06-07T09:22:31.648Z,31.43
2018-06-07T09:23:03.673Z,31.47
2018-06-07T09:23:35.760Z,31.45
2018-06-07T09:24:07.854Z,31.49
2018-06-07T09:24:39.954Z,31.53
2018-06-07T09:25:12.044Z,31.55
2018-06-07T09:25:44.137Z,31.56